Thunder radar more information blitzortung!


avis per Pluja more information rain snow radar


Visita la nostra xarxa de llocs de meteo:

Template documentation
and downloads

And another site



Rain From: 15-11-2018 14:00 Until: 23:59 warning for: Rain Level: Orange info button

Pagina Historial Weather Underground text

Diari Resum Agost 4, 2017 Unitats:  Tant    Imperial   Mètric
« Previous Dia
SegĂźent Dia »
Diari Setmana Mensual Anual Personalitzada
  Maxima: Minima: Media:
Temperatura: TemperatureC °F /  -17.8 °C 22.3 °F /  -5.4 °C 31.1 °F /  -0.5 °C
Punt de rosada: DewpointC °F /  -17.8 °C 12.2 °F /  -11 °C 17 °F /  -8.3 °C
Humitat: Humidity % 28 % 45 %
Wind Speed: WindSpeedKMH mph /  0 km/h - 5.9 mph /  9.5 km/h
RĂ fegues de vent: WindSpeedGustKMH mph /  0 km/h - -
Vent:- - South
Pression baro: PressurehPa in /  0 hPa 1010.0 in /  34198.6 hPa -
Precipitacions: 0.0 in /  0 mm    
Historical Graphs
 
 
Dades de taula per Agost 4, 2017
Temps Temperatura Punt de rosada Pression baro Vent Wind Speed RĂ fegues de vent Humitat Rainfall Rate (Hourly)
TemperatureC °F /  -17.8 °C DewpointC °F /  -17.8 °C PressurehPa in /  0 hPa Calm     Humidity % HourlyPrecipMM in /  0 mm
00:02 29.2 °F /  -1.6 °C 12.2 °F /  -11 °C 1011.7 in /  34256.2 hPa Calm     35 % 0.0 in /  0 mm
00:05 23.3 °F /  -4.8 °C 16.3 °F /  -8.7 °C 1013.8 in /  34327.3 hPa Calm     65 % 0.0 in /  0 mm
00:07 29.0 °F /  -1.7 °C 12.4 °F /  -10.9 °C 1011.7 in /  34256.2 hPa Calm     36 % 0.0 in /  0 mm
00:12 28.8 °F /  -1.8 °C 12.7 °F /  -10.7 °C 1011.7 in /  34256.2 hPa Calm     37 % 0.0 in /  0 mm
00:15 23.3 °F /  -4.8 °C 16.1 °F /  -8.8 °C 1013.8 in /  34327.3 hPa Calm     64 % 0.0 in /  0 mm
00:17 28.6 °F /  -1.9 °C 12.5 °F /  -10.8 °C 1012.8 in /  34293.4 hPa Calm     37 % 0.0 in /  0 mm
00:25 23.2 °F /  -4.9 °C 16.0 °F /  -8.9 °C 1013.8 in /  34327.3 hPa Calm     64 % 0.0 in /  0 mm
00:35 23.2 °F /  -4.9 °C 16.0 °F /  -8.9 °C 1012.8 in /  34293.4 hPa Calm     64 % 0.0 in /  0 mm
00:45 23.1 °F /  -4.9 °C 16.2 °F /  -8.8 °C 1012.8 in /  34293.4 hPa Calm     65 % 0.0 in /  0 mm
00:55 22.9 °F /  -5.1 °C 15.9 °F /  -8.9 °C 1013.8 in /  34327.3 hPa NW 1.6 mph /  2.6 km/h 1.6 mph /  2.6 km/h 65 % 0.0 in /  0 mm
01:05 22.8 °F /  -5.1 °C 16.1 °F /  -8.8 °C 1013.8 in /  34327.3 hPa Calm   1.6 mph /  2.6 km/h 66 % 0.0 in /  0 mm
01:15 22.7 °F /  -5.2 °C 16.0 °F /  -8.9 °C 1013.8 in /  34327.3 hPa Calm     66 % 0.0 in /  0 mm
01:25 22.6 °F /  -5.2 °C 15.7 °F /  -9.1 °C 1013.8 in /  34327.3 hPa Calm   1.6 mph /  2.6 km/h 65 % 0.0 in /  0 mm
01:35 22.4 °F /  -5.3 °C 15.7 °F /  -9.1 °C 1013.8 in /  34327.3 hPa Calm     66 % 0.0 in /  0 mm
01:45 22.3 °F /  -5.4 °C 15.7 °F /  -9.1 °C 1013.8 in /  34327.3 hPa WNW 1.6 mph /  2.6 km/h 1.6 mph /  2.6 km/h 66 % 0.0 in /  0 mm
01:55 22.3 °F /  -5.4 °C 15.7 °F /  -9.1 °C 1013.8 in /  34327.3 hPa NNW 1.6 mph /  2.6 km/h 3.2 mph /  5.1 km/h 66 % 0.0 in /  0 mm
02:05 22.3 °F /  -5.4 °C 15.7 °F /  -9.1 °C 1013.8 in /  34327.3 hPa North 1.6 mph /  2.6 km/h 1.6 mph /  2.6 km/h 66 % 0.0 in /  0 mm
02:15 22.3 °F /  -5.4 °C 15.9 °F /  -8.9 °C 1013.8 in /  34327.3 hPa Calm   3.2 mph /  5.1 km/h 67 % 0.0 in /  0 mm
02:25 22.5 °F /  -5.3 °C 15.8 °F /  -9 °C 1013.8 in /  34327.3 hPa Calm   1.6 mph /  2.6 km/h 66 % 0.0 in /  0 mm
02:35 22.8 °F /  -5.1 °C 15.9 °F /  -8.9 °C 1013.8 in /  34327.3 hPa Calm   1.6 mph /  2.6 km/h 65 % 0.0 in /  0 mm
02:45 23.2 °F /  -4.9 °C 16.0 °F /  -8.9 °C 1013.8 in /  34327.3 hPa Calm   1.6 mph /  2.6 km/h 64 % 0.0 in /  0 mm
02:55 23.1 °F /  -4.9 °C 15.9 °F /  -8.9 °C 1013.8 in /  34327.3 hPa East 1.6 mph /  2.6 km/h 1.6 mph /  2.6 km/h 64 % 0.0 in /  0 mm
03:05 22.8 °F /  -5.1 °C 15.6 °F /  -9.1 °C 1013.8 in /  34327.3 hPa SW 3.2 mph /  5.1 km/h 3.2 mph /  5.1 km/h 64 % 0.0 in /  0 mm
03:15 23.4 °F /  -4.8 °C 16.2 °F /  -8.8 °C 1013.8 in /  34327.3 hPa Calm   3.2 mph /  5.1 km/h 64 % 0.0 in /  0 mm
03:25 24.0 °F /  -4.4 °C 16.3 °F /  -8.7 °C 1014.8 in /  34361.1 hPa SE 1.6 mph /  2.6 km/h 3.2 mph /  5.1 km/h 62 % 0.0 in /  0 mm
03:35 24.4 °F /  -4.2 °C 16.1 °F /  -8.8 °C 1013.8 in /  34327.3 hPa East 1.6 mph /  2.6 km/h 3.2 mph /  5.1 km/h 60 % 0.0 in /  0 mm
03:45 25.1 °F /  -3.8 °C 16.5 °F /  -8.6 °C 1013.8 in /  34327.3 hPa East 1.6 mph /  2.6 km/h 3.2 mph /  5.1 km/h 59 % 0.0 in /  0 mm
03:55 25.4 °F /  -3.7 °C 16.3 °F /  -8.7 °C 1013.8 in /  34327.3 hPa ESE 1.6 mph /  2.6 km/h 1.6 mph /  2.6 km/h 57 % 0.0 in /  0 mm
04:05 26.2 °F /  -3.2 °C 16.7 °F /  -8.5 °C 1013.8 in /  34327.3 hPa Calm   3.2 mph /  5.1 km/h 56 % 0.0 in /  0 mm
04:15 26.8 °F /  -2.9 °C 17.0 °F /  -8.3 °C 1013.8 in /  34327.3 hPa SE 1.6 mph /  2.6 km/h 1.6 mph /  2.6 km/h 55 % 0.0 in /  0 mm
04:25 27.1 °F /  -2.7 °C 17.0 °F /  -8.3 °C 1013.8 in /  34327.3 hPa SE 1.6 mph /  2.6 km/h 3.2 mph /  5.1 km/h 54 % 0.0 in /  0 mm
04:35 27.9 °F /  -2.3 °C 17.1 °F /  -8.3 °C 1013.8 in /  34327.3 hPa SSE 1.6 mph /  2.6 km/h 3.2 mph /  5.1 km/h 52 % 0.0 in /  0 mm
04:45 28.1 °F /  -2.2 °C 17.3 °F /  -8.2 °C 1013.8 in /  34327.3 hPa SSW 1.6 mph /  2.6 km/h 1.6 mph /  2.6 km/h 52 % 0.0 in /  0 mm
04:55 28.3 °F /  -2.1 °C 17.5 °F /  -8.1 °C 1013.8 in /  34327.3 hPa SW 1.6 mph /  2.6 km/h 3.2 mph /  5.1 km/h 52 % 0.0 in /  0 mm
05:05 29.5 °F /  -1.4 °C 18.0 °F /  -7.8 °C 1013.8 in /  34327.3 hPa South 1.6 mph /  2.6 km/h 3.2 mph /  5.1 km/h 50 % 0.0 in /  0 mm
10:16 30.3 °F /  -0.9 °C 18.1 °F /  -7.7 °C 1013.8 in /  34327.3 hPa ESE 4.2 mph /  6.8 km/h 4.2 mph /  6.8 km/h 48 % 0.0 in /  0 mm
10:21 30.7 °F /  -0.7 °C 18.4 °F /  -7.6 °C 1013.8 in /  34327.3 hPa ESE 1.9 mph /  3.1 km/h   48 % 0.0 in /  0 mm
10:26 30.6 °F /  -0.8 °C 18.0 °F /  -7.8 °C 1013.8 in /  34327.3 hPa WNW 3.7 mph /  6 km/h 3.7 mph /  6 km/h 47 % 0.0 in /  0 mm
10:31 31.4 °F /  -0.3 °C 18.4 °F /  -7.6 °C 1013.8 in /  34327.3 hPa SSE 5.0 mph /  8 km/h 5.0 mph /  8 km/h 46 % 0.0 in /  0 mm
10:36 31.8 °F /  -0.1 °C 18.8 °F /  -7.3 °C 1014.8 in /  34361.1 hPa ESE 3.7 mph /  6 km/h 3.7 mph /  6 km/h 46 % 0.0 in /  0 mm
10:41 32.1 °F /  0.1 °C 18.7 °F /  -7.4 °C 1014.8 in /  34361.1 hPa ESE 3.7 mph /  6 km/h 3.7 mph /  6 km/h 45 % 0.0 in /  0 mm
10:46 32.2 °F /  0.1 °C 18.8 °F /  -7.3 °C 1014.8 in /  34361.1 hPa SSE 2.6 mph /  4.2 km/h 2.6 mph /  4.2 km/h 45 % 0.0 in /  0 mm
10:51 32.8 °F /  0.4 °C 18.9 °F /  -7.3 °C 1013.8 in /  34327.3 hPa SW 5.6 mph /  9 km/h 5.6 mph /  9 km/h 44 % 0.0 in /  0 mm
10:56 33.1 °F /  0.6 °C 18.8 °F /  -7.3 °C 1013.8 in /  34327.3 hPa SSW 6.1 mph /  9.8 km/h 6.1 mph /  9.8 km/h 43 % 0.0 in /  0 mm
11:01 33.3 °F /  0.7 °C 19.0 °F /  -7.2 °C 1013.8 in /  34327.3 hPa SW 3.7 mph /  6 km/h 3.7 mph /  6 km/h 43 % 0.0 in /  0 mm
11:06 33.9 °F /  1.1 °C 19.2 °F /  -7.1 °C 1013.8 in /  34327.3 hPa SSE 1.9 mph /  3.1 km/h 1.9 mph /  3.1 km/h 42 % 0.0 in /  0 mm
11:11 33.9 °F /  1.1 °C 19.2 °F /  -7.1 °C 1013.8 in /  34327.3 hPa ESE 5.6 mph /  9 km/h 5.6 mph /  9 km/h 42 % 0.0 in /  0 mm
11:16 33.7 °F /  0.9 °C 19.0 °F /  -7.2 °C 1013.8 in /  34327.3 hPa SSW 7.4 mph /  11.9 km/h 7.4 mph /  11.9 km/h 42 % 0.0 in /  0 mm
11:21 33.6 °F /  0.9 °C 18.6 °F /  -7.4 °C 1013.8 in /  34327.3 hPa SW 5.6 mph /  9 km/h 5.6 mph /  9 km/h 41 % 0.0 in /  0 mm
11:26 34.1 °F /  1.2 °C 18.6 °F /  -7.4 °C 1013.8 in /  34327.3 hPa SSW 7.4 mph /  11.9 km/h 7.4 mph /  11.9 km/h 40 % 0.0 in /  0 mm
11:27 34.2 °F /  1.2 °C 19.1 °F /  -7.2 °C 1013.8 in /  34327.3 hPa SW 5.8 mph /  9.3 km/h 5.8 mph /  9.3 km/h 41 % 0.0 in /  0 mm
11:32 34.0 °F /  1.1 °C 18.5 °F /  -7.5 °C 1013.8 in /  34327.3 hPa West 7.4 mph /  11.9 km/h 7.4 mph /  11.9 km/h 40 % 0.0 in /  0 mm
11:37 34.6 °F /  1.4 °C 18.6 °F /  -7.4 °C 1013.8 in /  34327.3 hPa ESE 1.9 mph /  3.1 km/h 1.9 mph /  3.1 km/h 39 % 0.0 in /  0 mm
11:42 34.8 °F /  1.6 °C 18.4 °F /  -7.6 °C 1013.8 in /  34327.3 hPa SW 9.3 mph /  15 km/h 9.3 mph /  15 km/h 38 % 0.0 in /  0 mm
11:47 35.1 °F /  1.7 °C 17.8 °F /  -7.9 °C 1013.8 in /  34327.3 hPa South 7.4 mph /  11.9 km/h 7.4 mph /  11.9 km/h 36 % 0.0 in /  0 mm
11:52 35.0 °F /  1.7 °C 17.7 °F /  -7.9 °C 1013.8 in /  34327.3 hPa SW 10.3 mph /  16.6 km/h 10.3 mph /  16.6 km/h 36 % 0.0 in /  0 mm
11:57 34.9 °F /  1.6 °C 16.7 °F /  -8.5 °C 1013.8 in /  34327.3 hPa South 9.3 mph /  15 km/h 9.3 mph /  15 km/h 34 % 0.0 in /  0 mm
12:02 35.8 °F /  2.1 °C 17.9 °F /  -7.8 °C 1013.8 in /  34327.3 hPa West 5.3 mph /  8.5 km/h 5.3 mph /  8.5 km/h 35 % 0.0 in /  0 mm
12:07 35.5 °F /  1.9 °C 17.2 °F /  -8.2 °C 1013.8 in /  34327.3 hPa WSW 7.4 mph /  11.9 km/h 7.4 mph /  11.9 km/h 34 % 0.0 in /  0 mm
12:12 35.4 °F /  1.9 °C 16.7 °F /  -8.5 °C 1013.8 in /  34327.3 hPa SSW 14.8 mph /  23.8 km/h 14.8 mph /  23.8 km/h 33 % 0.0 in /  0 mm
12:17 35.7 °F /  2.1 °C 17.4 °F /  -8.1 °C 1013.8 in /  34327.3 hPa ESE 5.6 mph /  9 km/h 5.6 mph /  9 km/h 34 % 0.0 in /  0 mm
12:22 36.6 °F /  2.6 °C 18.2 °F /  -7.7 °C 1013.8 in /  34327.3 hPa SSW 10.3 mph /  16.6 km/h 10.3 mph /  16.6 km/h 34 % 0.0 in /  0 mm
12:27 36.0 °F /  2.2 °C 17.2 °F /  -8.2 °C 1013.8 in /  34327.3 hPa SW 7.4 mph /  11.9 km/h 7.4 mph /  11.9 km/h 33 % 0.0 in /  0 mm
12:32 36.2 °F /  2.3 °C 17.4 °F /  -8.1 °C 1013.8 in /  34327.3 hPa SW 7.4 mph /  11.9 km/h 7.4 mph /  11.9 km/h 33 % 0.0 in /  0 mm
12:37 36.7 °F /  2.6 °C 17.3 °F /  -8.2 °C 1013.8 in /  34327.3 hPa WSW 5.6 mph /  9 km/h 5.6 mph /  9 km/h 32 % 0.0 in /  0 mm
12:42 37.1 °F /  2.8 °C 17.7 °F /  -7.9 °C 1013.8 in /  34327.3 hPa WSW 6.1 mph /  9.8 km/h 6.1 mph /  9.8 km/h 32 % 0.0 in /  0 mm
12:47 36.7 °F /  2.6 °C 17.3 °F /  -8.2 °C 1012.8 in /  34293.4 hPa South 5.6 mph /  9 km/h 5.6 mph /  9 km/h 32 % 0.0 in /  0 mm
12:52 36.9 °F /  2.7 °C 17.5 °F /  -8.1 °C 1012.8 in /  34293.4 hPa WNW 9.3 mph /  15 km/h 9.3 mph /  15 km/h 32 % 0.0 in /  0 mm
12:57 37.6 °F /  3.1 °C 18.1 °F /  -7.7 °C 1012.8 in /  34293.4 hPa SSW 4.2 mph /  6.8 km/h 4.2 mph /  6.8 km/h 32 % 0.0 in /  0 mm
13:02 36.9 °F /  2.7 °C 17.0 °F /  -8.3 °C 1011.7 in /  34256.2 hPa SW 9.3 mph /  15 km/h 9.3 mph /  15 km/h 31 % 0.0 in /  0 mm
13:07 36.9 °F /  2.7 °C 17.0 °F /  -8.3 °C 1011.7 in /  34256.2 hPa South 5.6 mph /  9 km/h 5.6 mph /  9 km/h 31 % 0.0 in /  0 mm
13:12 37.5 °F /  3.1 °C 17.0 °F /  -8.3 °C 1011.7 in /  34256.2 hPa SW 11.1 mph /  17.9 km/h 11.1 mph /  17.9 km/h 30 % 0.0 in /  0 mm
13:17 37.3 °F /  2.9 °C 16.8 °F /  -8.4 °C 1011.7 in /  34256.2 hPa SSW 13.0 mph /  20.9 km/h 13.0 mph /  20.9 km/h 30 % 0.0 in /  0 mm
13:22 37.5 °F /  3.1 °C 17.0 °F /  -8.3 °C 1011.7 in /  34256.2 hPa SW 11.1 mph /  17.9 km/h 11.1 mph /  17.9 km/h 30 % 0.0 in /  0 mm
13:27 37.2 °F /  2.9 °C 16.7 °F /  -8.5 °C 1011.7 in /  34256.2 hPa South 5.6 mph /  9 km/h 5.6 mph /  9 km/h 30 % 0.0 in /  0 mm
13:32 37.9 °F /  3.3 °C 17.3 °F /  -8.2 °C 1011.7 in /  34256.2 hPa SSW 11.1 mph /  17.9 km/h 11.1 mph /  17.9 km/h 30 % 0.0 in /  0 mm
13:37 37.7 °F /  3.2 °C 17.2 °F /  -8.2 °C 1011.7 in /  34256.2 hPa WSW 7.4 mph /  11.9 km/h 7.4 mph /  11.9 km/h 30 % 0.0 in /  0 mm
13:42 38.1 °F /  3.4 °C 17.5 °F /  -8.1 °C 1011.7 in /  34256.2 hPa WSW 5.6 mph /  9 km/h 5.6 mph /  9 km/h 30 % 0.0 in /  0 mm
13:47 38.2 °F /  3.4 °C 17.6 °F /  -8 °C 1010.7 in /  34222.3 hPa West 11.9 mph /  19.2 km/h 11.9 mph /  19.2 km/h 30 % 0.0 in /  0 mm
13:52 37.6 °F /  3.1 °C 16.6 °F /  -8.6 °C 1010.7 in /  34222.3 hPa WSW 9.3 mph /  15 km/h 9.3 mph /  15 km/h 29 % 0.0 in /  0 mm
13:57 38.3 °F /  3.5 °C 17.1 °F /  -8.3 °C 1010.7 in /  34222.3 hPa SE 9.3 mph /  15 km/h 9.3 mph /  15 km/h 29 % 0.0 in /  0 mm
14:02 38.3 °F /  3.5 °C 17.1 °F /  -8.3 °C 1011.7 in /  34256.2 hPa SW 11.1 mph /  17.9 km/h 11.1 mph /  17.9 km/h 29 % 0.0 in /  0 mm
14:07 38.0 °F /  3.3 °C 16.9 °F /  -8.4 °C 1011.7 in /  34256.2 hPa SW 13.0 mph /  20.9 km/h 13.0 mph /  20.9 km/h 29 % 0.0 in /  0 mm
14:12 38.0 °F /  3.3 °C 16.9 °F /  -8.4 °C 1011.7 in /  34256.2 hPa SW 9.3 mph /  15 km/h 9.3 mph /  15 km/h 29 % 0.0 in /  0 mm
14:17 38.1 °F /  3.4 °C 16.9 °F /  -8.4 °C 1011.7 in /  34256.2 hPa WSW 7.6 mph /  12.2 km/h 7.6 mph /  12.2 km/h 29 % 0.0 in /  0 mm
14:22 37.8 °F /  3.2 °C 16.7 °F /  -8.5 °C 1011.7 in /  34256.2 hPa South 9.3 mph /  15 km/h 9.3 mph /  15 km/h 29 % 0.0 in /  0 mm
14:27 38.3 °F /  3.5 °C 17.1 °F /  -8.3 °C 1011.7 in /  34256.2 hPa SW 7.4 mph /  11.9 km/h 7.4 mph /  11.9 km/h 29 % 0.0 in /  0 mm
14:32 38.4 °F /  3.6 °C 17.2 °F /  -8.2 °C 1011.7 in /  34256.2 hPa SSW 9.3 mph /  15 km/h 9.3 mph /  15 km/h 29 % 0.0 in /  0 mm
14:37 38.0 °F /  3.3 °C 16.3 °F /  -8.7 °C 1011.7 in /  34256.2 hPa South 5.6 mph /  9 km/h 5.6 mph /  9 km/h 28 % 0.0 in /  0 mm
14:42 38.5 °F /  3.6 °C 17.3 °F /  -8.2 °C 1011.7 in /  34256.2 hPa SW 9.3 mph /  15 km/h 9.3 mph /  15 km/h 29 % 0.0 in /  0 mm
14:47 38.9 °F /  3.8 °C 17.7 °F /  -7.9 °C 1011.7 in /  34256.2 hPa West 14.8 mph /  23.8 km/h 14.8 mph /  23.8 km/h 29 % 0.0 in /  0 mm
14:48 38.9 °F /  3.8 °C 17.7 °F /  -7.9 °C 1011.7 in /  34256.2 hPa West 14.8 mph /  23.8 km/h 14.8 mph /  23.8 km/h 29 % 0.0 in /  0 mm
14:53 38.5 °F /  3.6 °C 16.8 °F /  -8.4 °C 1011.7 in /  34256.2 hPa SSW 11.1 mph /  17.9 km/h 11.1 mph /  17.9 km/h 28 % 0.0 in /  0 mm
14:58 38.0 °F /  3.3 °C 16.3 °F /  -8.7 °C 1011.7 in /  34256.2 hPa SW 13.0 mph /  20.9 km/h 13.0 mph /  20.9 km/h 28 % 0.0 in /  0 mm
15:03 38.2 °F /  3.4 °C 16.5 °F /  -8.6 °C 1011.7 in /  34256.2 hPa SE 9.3 mph /  15 km/h 9.3 mph /  15 km/h 28 % 0.0 in /  0 mm
15:08 37.8 °F /  3.2 °C 16.2 °F /  -8.8 °C 1011.7 in /  34256.2 hPa West 18.5 mph /  29.8 km/h 18.5 mph /  29.8 km/h 28 % 0.0 in /  0 mm
15:13 37.7 °F /  3.2 °C 16.1 °F /  -8.8 °C 1011.7 in /  34256.2 hPa SW 16.7 mph /  26.9 km/h 16.7 mph /  26.9 km/h 28 % 0.0 in /  0 mm
15:18 38.4 °F /  3.6 °C 16.7 °F /  -8.5 °C 1010.7 in /  34222.3 hPa SSW 7.4 mph /  11.9 km/h 7.4 mph /  11.9 km/h 28 % 0.0 in /  0 mm
15:23 38.5 °F /  3.6 °C 16.8 °F /  -8.4 °C 1010.7 in /  34222.3 hPa SSE 9.3 mph /  15 km/h 9.3 mph /  15 km/h 28 % 0.0 in /  0 mm
15:28 38.3 °F /  3.5 °C 16.6 °F /  -8.6 °C 1010.7 in /  34222.3 hPa SSW 14.8 mph /  23.8 km/h 14.8 mph /  23.8 km/h 28 % 0.0 in /  0 mm
15:33 38.3 °F /  3.5 °C 16.6 °F /  -8.6 °C 1010.7 in /  34222.3 hPa SW 11.1 mph /  17.9 km/h 11.1 mph /  17.9 km/h 28 % 0.0 in /  0 mm
15:38 37.8 °F /  3.2 °C 16.2 °F /  -8.8 °C 1010.7 in /  34222.3 hPa SW 14.8 mph /  23.8 km/h 14.8 mph /  23.8 km/h 28 % 0.0 in /  0 mm
15:43 38.0 °F /  3.3 °C 16.3 °F /  -8.7 °C 1010.7 in /  34222.3 hPa SW 9.3 mph /  15 km/h 10.0 mph /  16.1 km/h 28 % 0.0 in /  0 mm
15:48 37.6 °F /  3.1 °C 16.0 °F /  -8.9 °C 1010.7 in /  34222.3 hPa West 16.7 mph /  26.9 km/h 16.7 mph /  26.9 km/h 28 % 0.0 in /  0 mm
15:53 37.8 °F /  3.2 °C 16.2 °F /  -8.8 °C 1010.7 in /  34222.3 hPa SW 9.3 mph /  15 km/h 9.3 mph /  15 km/h 28 % 0.0 in /  0 mm
15:58 37.6 °F /  3.1 °C 16.0 °F /  -8.9 °C 1010.7 in /  34222.3 hPa SW 16.7 mph /  26.9 km/h 16.7 mph /  26.9 km/h 28 % 0.0 in /  0 mm
16:03 38.0 °F /  3.3 °C 16.3 °F /  -8.7 °C 1010.7 in /  34222.3 hPa SW 13.0 mph /  20.9 km/h 13.0 mph /  20.9 km/h 28 % 0.0 in /  0 mm
16:08 38.1 °F /  3.4 °C 16.4 °F /  -8.7 °C 1010.7 in /  34222.3 hPa SW 13.0 mph /  20.9 km/h 13.0 mph /  20.9 km/h 28 % 0.0 in /  0 mm
16:13 38.2 °F /  3.4 °C 16.5 °F /  -8.6 °C 1010.7 in /  34222.3 hPa WSW 13.0 mph /  20.9 km/h 13.0 mph /  20.9 km/h 28 % 0.0 in /  0 mm
16:18 37.9 °F /  3.3 °C 16.2 °F /  -8.8 °C 1010.0 in /  34198.6 hPa SW 16.7 mph /  26.9 km/h 16.7 mph /  26.9 km/h 28 % 0.0 in /  0 mm
16:23 38.1 °F /  3.4 °C 16.4 °F /  -8.7 °C 1010.0 in /  34198.6 hPa West 11.1 mph /  17.9 km/h 11.1 mph /  17.9 km/h 28 % 0.0 in /  0 mm
16:28 37.6 °F /  3.1 °C 16.0 °F /  -8.9 °C 1010.0 in /  34198.6 hPa SW 14.8 mph /  23.8 km/h 14.8 mph /  23.8 km/h 28 % 0.0 in /  0 mm
16:33 38.0 °F /  3.3 °C 16.3 °F /  -8.7 °C 1010.0 in /  34198.6 hPa SSE 9.3 mph /  15 km/h 9.3 mph /  15 km/h 28 % 0.0 in /  0 mm
16:38 38.3 °F /  3.5 °C 16.6 °F /  -8.6 °C 1010.0 in /  34198.6 hPa South 9.3 mph /  15 km/h 9.3 mph /  15 km/h 28 % 0.0 in /  0 mm
16:43 38.3 °F /  3.5 °C 16.6 °F /  -8.6 °C 1010.0 in /  34198.6 hPa SSW 10.0 mph /  16.1 km/h 10.0 mph /  16.1 km/h 28 % 0.0 in /  0 mm
16:48 38.1 °F /  3.4 °C 16.4 °F /  -8.7 °C 1010.7 in /  34222.3 hPa SSW 9.7 mph /  15.6 km/h 9.7 mph /  15.6 km/h 28 % 0.0 in /  0 mm
16:53 38.0 °F /  3.3 °C 16.3 °F /  -8.7 °C 1010.7 in /  34222.3 hPa WSW 7.4 mph /  11.9 km/h 7.4 mph /  11.9 km/h 28 % 0.0 in /  0 mm
16:58 38.0 °F /  3.3 °C 16.3 °F /  -8.7 °C 1010.7 in /  34222.3 hPa WSW 11.1 mph /  17.9 km/h 11.1 mph /  17.9 km/h 28 % 0.0 in /  0 mm
17:00 38.1 °F /  3.4 °C 16.4 °F /  -8.7 °C 1010.7 in /  34222.3 hPa SW 13.0 mph /  20.9 km/h 13.0 mph /  20.9 km/h 28 % 0.0 in /  0 mm
17:05 38.1 °F /  3.4 °C 16.4 °F /  -8.7 °C 1010.0 in /  34198.6 hPa West 9.3 mph /  15 km/h 9.3 mph /  15 km/h 28 % 0.0 in /  0 mm
17:10 37.5 °F /  3.1 °C 15.9 °F /  -8.9 °C 1010.0 in /  34198.6 hPa SW 9.3 mph /  15 km/h 9.3 mph /  15 km/h 28 % 0.0 in /  0 mm
17:15 37.6 °F /  3.1 °C 16.0 °F /  -8.9 °C 1010.0 in /  34198.6 hPa South 7.4 mph /  11.9 km/h 7.4 mph /  11.9 km/h 28 % 0.0 in /  0 mm
17:20 37.7 °F /  3.2 °C 16.1 °F /  -8.8 °C 1010.7 in /  34222.3 hPa ESE 6.1 mph /  9.8 km/h 6.1 mph /  9.8 km/h 28 % 0.0 in /  0 mm
17:25 36.8 °F /  2.7 °C 15.3 °F /  -9.3 °C 1010.7 in /  34222.3 hPa WSW 5.6 mph /  9 km/h 5.6 mph /  9 km/h 28 % 0.0 in /  0 mm
17:30 37.2 °F /  2.9 °C 15.7 °F /  -9.1 °C 1010.7 in /  34222.3 hPa SSW 13.0 mph /  20.9 km/h 13.0 mph /  20.9 km/h 28 % 0.0 in /  0 mm
17:35 37.2 °F /  2.9 °C 15.7 °F /  -9.1 °C 1010.7 in /  34222.3 hPa North 6.1 mph /  9.8 km/h 6.1 mph /  9.8 km/h 28 % 0.0 in /  0 mm
17:40 36.0 °F /  2.2 °C 15.2 °F /  -9.3 °C 1010.7 in /  34222.3 hPa North 5.6 mph /  9 km/h 5.6 mph /  9 km/h 29 % 0.0 in /  0 mm
17:45 36.0 °F /  2.2 °C 15.2 °F /  -9.3 °C 1010.7 in /  34222.3 hPa SSE 9.3 mph /  15 km/h 9.3 mph /  15 km/h 29 % 0.0 in /  0 mm
17:50 35.6 °F /  2 °C 14.8 °F /  -9.6 °C 1010.0 in /  34198.6 hPa West 7.9 mph /  12.7 km/h 7.9 mph /  12.7 km/h 29 % 0.0 in /  0 mm
17:55 35.9 °F /  2.2 °C 15.1 °F /  -9.4 °C 1010.0 in /  34198.6 hPa NE 3.7 mph /  6 km/h 3.7 mph /  6 km/h 29 % 0.0 in /  0 mm
18:00 35.8 °F /  2.1 °C 15.0 °F /  -9.4 °C 1010.0 in /  34198.6 hPa West 3.7 mph /  6 km/h 3.7 mph /  6 km/h 29 % 0.0 in /  0 mm
18:05 36.1 °F /  2.3 °C 15.3 °F /  -9.3 °C 1010.7 in /  34222.3 hPa ENE 5.0 mph /  8 km/h 5.0 mph /  8 km/h 29 % 0.0 in /  0 mm
18:10 36.2 °F /  2.3 °C 15.3 °F /  -9.3 °C 1010.7 in /  34222.3 hPa ENE 5.6 mph /  9 km/h 5.6 mph /  9 km/h 29 % 0.0 in /  0 mm
18:15 36.5 °F /  2.5 °C 15.6 °F /  -9.1 °C 1010.7 in /  34222.3 hPa SW 7.4 mph /  11.9 km/h 7.4 mph /  11.9 km/h 29 % 0.0 in /  0 mm
18:20 36.5 °F /  2.5 °C 15.6 °F /  -9.1 °C 1010.7 in /  34222.3 hPa SSW 3.7 mph /  6 km/h 3.7 mph /  6 km/h 29 % 0.0 in /  0 mm
18:25 35.4 °F /  1.9 °C 14.7 °F /  -9.6 °C 1010.7 in /  34222.3 hPa South 3.9 mph /  6.3 km/h 3.9 mph /  6.3 km/h 29 % 0.0 in /  0 mm
18:30 35.8 °F /  2.1 °C 15.0 °F /  -9.4 °C 1010.7 in /  34222.3 hPa SW 9.3 mph /  15 km/h 9.3 mph /  15 km/h 29 % 0.0 in /  0 mm
18:35 35.6 °F /  2 °C 14.8 °F /  -9.6 °C 1010.7 in /  34222.3 hPa North 13.0 mph /  20.9 km/h 13.0 mph /  20.9 km/h 29 % 0.0 in /  0 mm
18:40 34.7 °F /  1.5 °C 15.1 °F /  -9.4 °C 1010.7 in /  34222.3 hPa ENE 9.3 mph /  15 km/h 9.3 mph /  15 km/h 31 % 0.0 in /  0 mm
18:41 34.7 °F /  1.5 °C 15.1 °F /  -9.4 °C 1010.7 in /  34222.3 hPa East 5.6 mph /  9 km/h 5.6 mph /  9 km/h 31 % 0.0 in /  0 mm
18:46 33.9 °F /  1.1 °C 15.4 °F /  -9.2 °C 1010.7 in /  34222.3 hPa NE 5.6 mph /  9 km/h 5.6 mph /  9 km/h 33 % 0.0 in /  0 mm
18:51 33.7 °F /  0.9 °C 15.2 °F /  -9.3 °C 1010.7 in /  34222.3 hPa SSE 4.7 mph /  7.6 km/h 4.7 mph /  7.6 km/h 33 % 0.0 in /  0 mm
18:56 33.6 °F /  0.9 °C 15.1 °F /  -9.4 °C 1010.7 in /  34222.3 hPa ESE 5.6 mph /  9 km/h 5.6 mph /  9 km/h 33 % 0.0 in /  0 mm
19:01 33.2 °F /  0.7 °C 15.2 °F /  -9.3 °C 1011.7 in /  34256.2 hPa East 11.4 mph /  18.3 km/h 11.4 mph /  18.3 km/h 34 % 0.0 in /  0 mm
19:06 32.9 °F /  0.5 °C 15.8 °F /  -9 °C 1011.7 in /  34256.2 hPa ESE 9.3 mph /  15 km/h 9.3 mph /  15 km/h 36 % 0.0 in /  0 mm
19:11 32.7 °F /  0.4 °C 15.7 °F /  -9.1 °C 1011.7 in /  34256.2 hPa SE 11.1 mph /  17.9 km/h 11.1 mph /  17.9 km/h 36 % 0.0 in /  0 mm
19:16 32.5 °F /  0.3 °C 15.9 °F /  -8.9 °C 1011.7 in /  34256.2 hPa ENE 3.7 mph /  6 km/h 3.7 mph /  6 km/h 37 % 0.0 in /  0 mm
19:21 32.5 °F /  0.3 °C 15.9 °F /  -8.9 °C 1011.7 in /  34256.2 hPa East 3.7 mph /  6 km/h 3.7 mph /  6 km/h 37 % 0.0 in /  0 mm
19:25 26.2 °F /  -3.2 °C 18.6 °F /  -7.4 °C 1013.8 in /  34327.3 hPa Calm   1.6 mph /  2.6 km/h 63 % 0.0 in /  0 mm
19:26 32.5 °F /  0.3 °C 15.9 °F /  -8.9 °C 1011.7 in /  34256.2 hPa WSW 7.4 mph /  11.9 km/h 7.4 mph /  11.9 km/h 37 % 0.0 in /  0 mm
19:31 32.8 °F /  0.4 °C 16.2 °F /  -8.8 °C 1011.7 in /  34256.2 hPa South 5.3 mph /  8.5 km/h 5.3 mph /  8.5 km/h 37 % 0.0 in /  0 mm
19:35 26.1 °F /  -3.3 °C 18.5 °F /  -7.5 °C 1013.8 in /  34327.3 hPa Calm     63 % 0.0 in /  0 mm
19:36 32.9 °F /  0.5 °C 16.3 °F /  -8.7 °C 1011.7 in /  34256.2 hPa SW 5.6 mph /  9 km/h 5.6 mph /  9 km/h 37 % 0.0 in /  0 mm
19:41 32.9 °F /  0.5 °C 16.3 °F /  -8.7 °C 1011.7 in /  34256.2 hPa SW 3.7 mph /  6 km/h 3.7 mph /  6 km/h 37 % 0.0 in /  0 mm
19:45 26.0 °F /  -3.3 °C 18.7 °F /  -7.4 °C 1013.8 in /  34327.3 hPa West 1.6 mph /  2.6 km/h 3.2 mph /  5.1 km/h 64 % 0.0 in /  0 mm
19:46 33.1 °F /  0.6 °C 16.1 °F /  -8.8 °C 1011.7 in /  34256.2 hPa WSW 7.4 mph /  11.9 km/h 7.4 mph /  11.9 km/h 36 % 0.0 in /  0 mm
19:51 32.9 °F /  0.5 °C 16.3 °F /  -8.7 °C 1011.7 in /  34256.2 hPa NE 7.4 mph /  11.9 km/h 7.4 mph /  11.9 km/h 37 % 0.0 in /  0 mm
19:55 25.8 °F /  -3.4 °C 18.2 °F /  -7.7 °C 1013.8 in /  34327.3 hPa Calm   1.6 mph /  2.6 km/h 63 % 0.0 in /  0 mm
19:56 32.2 °F /  0.1 °C 16.1 °F /  -8.8 °C 1011.7 in /  34256.2 hPa South 5.6 mph /  9 km/h 5.6 mph /  9 km/h 38 % 0.0 in /  0 mm
20:01 31.5 °F /  -0.3 °C 15.9 °F /  -8.9 °C 1011.7 in /  34256.2 hPa ENE 5.6 mph /  9 km/h 5.6 mph /  9 km/h 39 % 0.0 in /  0 mm
20:05 25.6 °F /  -3.6 °C 18.1 °F /  -7.7 °C 1013.8 in /  34327.3 hPa Calm   3.2 mph /  5.1 km/h 63 % 0.0 in /  0 mm
20:06 31.1 °F /  -0.5 °C 15.9 °F /  -8.9 °C 1011.7 in /  34256.2 hPa NE 4.2 mph /  6.8 km/h 4.2 mph /  6.8 km/h 40 % 0.0 in /  0 mm
20:11 30.8 °F /  -0.7 °C 16.4 °F /  -8.7 °C 1011.7 in /  34256.2 hPa ENE 7.4 mph /  11.9 km/h 7.4 mph /  11.9 km/h 42 % 0.0 in /  0 mm
20:15 25.4 °F /  -3.7 °C 17.8 °F /  -7.9 °C 1013.8 in /  34327.3 hPa SW 1.6 mph /  2.6 km/h 3.2 mph /  5.1 km/h 63 % 0.0 in /  0 mm
20:16 30.4 °F /  -0.9 °C 16.4 °F /  -8.7 °C 1011.7 in /  34256.2 hPa ENE 9.3 mph /  15 km/h 9.3 mph /  15 km/h 43 % 0.0 in /  0 mm
20:21 30.1 °F /  -1.1 °C 16.5 °F /  -8.6 °C 1011.7 in /  34256.2 hPa NE 11.1 mph /  17.9 km/h 11.1 mph /  17.9 km/h 44 % 0.0 in /  0 mm
20:25 25.3 °F /  -3.7 °C 18.0 °F /  -7.8 °C 1013.8 in /  34327.3 hPa Calm   1.6 mph /  2.6 km/h 64 % 0.0 in /  0 mm
20:26 30.0 °F /  -1.1 °C 16.8 °F /  -8.4 °C 1011.7 in /  34256.2 hPa ESE 9.3 mph /  15 km/h 9.3 mph /  15 km/h 45 % 0.0 in /  0 mm
20:31 29.8 °F /  -1.2 °C 16.9 °F /  -8.4 °C 1010.7 in /  34222.3 hPa ESE 7.4 mph /  11.9 km/h 7.4 mph /  11.9 km/h 46 % 0.0 in /  0 mm
20:35 25.2 °F /  -3.8 °C 18.2 °F /  -7.7 °C 1014.8 in /  34361.1 hPa WSW 1.6 mph /  2.6 km/h 3.2 mph /  5.1 km/h 65 % 0.0 in /  0 mm
20:36 29.7 °F /  -1.3 °C 16.8 °F /  -8.4 °C 1010.7 in /  34222.3 hPa East 9.3 mph /  15 km/h 9.3 mph /  15 km/h 46 % 0.0 in /  0 mm
20:41 29.6 °F /  -1.3 °C 17.1 °F /  -8.3 °C 1010.7 in /  34222.3 hPa East 9.3 mph /  15 km/h 9.3 mph /  15 km/h 47 % 0.0 in /  0 mm
20:45 25.1 °F /  -3.8 °C 17.8 °F /  -7.9 °C 1014.8 in /  34361.1 hPa WSW 3.2 mph /  5.1 km/h 3.2 mph /  5.1 km/h 64 % 0.0 in /  0 mm
20:46 29.4 °F /  -1.4 °C 17.2 °F /  -8.2 °C 1011.7 in /  34256.2 hPa NNE 9.3 mph /  15 km/h 9.3 mph /  15 km/h 48 % 0.0 in /  0 mm
20:51 29.2 °F /  -1.6 °C 17.1 °F /  -8.3 °C 1011.7 in /  34256.2 hPa ENE 11.1 mph /  17.9 km/h 11.1 mph /  17.9 km/h 48 % 0.0 in /  0 mm
20:55 24.9 °F /  -3.9 °C 18.1 °F /  -7.7 °C 1013.8 in /  34327.3 hPa SW 1.6 mph /  2.6 km/h 3.2 mph /  5.1 km/h 66 % 0.0 in /  0 mm
20:56 29.1 °F /  -1.6 °C 17.3 °F /  -8.2 °C 1011.7 in /  34256.2 hPa ESE 9.3 mph /  15 km/h 9.3 mph /  15 km/h 49 % 0.0 in /  0 mm
21:01 28.9 °F /  -1.7 °C 17.7 °F /  -7.9 °C 1011.7 in /  34256.2 hPa ENE 7.4 mph /  11.9 km/h 7.4 mph /  11.9 km/h 51 % 0.0 in /  0 mm
21:05 24.8 °F /  -4 °C 18.0 °F /  -7.8 °C 1013.8 in /  34327.3 hPa SW 1.6 mph /  2.6 km/h 3.2 mph /  5.1 km/h 66 % 0.0 in /  0 mm
21:06 28.8 °F /  -1.8 °C 17.7 °F /  -7.9 °C 1011.7 in /  34256.2 hPa ENE 9.3 mph /  15 km/h 9.3 mph /  15 km/h 51 % 0.0 in /  0 mm
21:11 28.6 °F /  -1.9 °C 17.8 °F /  -7.9 °C 1011.7 in /  34256.2 hPa NE 9.3 mph /  15 km/h 9.3 mph /  15 km/h 52 % 0.0 in /  0 mm
21:15 24.8 °F /  -4 °C 18.3 °F /  -7.6 °C 1013.8 in /  34327.3 hPa WSW 1.6 mph /  2.6 km/h 1.6 mph /  2.6 km/h 67 % 0.0 in /  0 mm
21:16 28.6 °F /  -1.9 °C 18.1 °F /  -7.7 °C 1011.7 in /  34256.2 hPa East 9.3 mph /  15 km/h 9.3 mph /  15 km/h 53 % 0.0 in /  0 mm
21:21 28.4 °F /  -2 °C 17.9 °F /  -7.8 °C 1011.7 in /  34256.2 hPa ESE 7.4 mph /  11.9 km/h 7.4 mph /  11.9 km/h 53 % 0.0 in /  0 mm
21:25 24.8 °F /  -4 °C 18.3 °F /  -7.6 °C 1013.8 in /  34327.3 hPa SW 1.6 mph /  2.6 km/h 3.2 mph /  5.1 km/h 67 % 0.0 in /  0 mm
21:26 28.3 °F /  -2.1 °C 18.4 °F /  -7.6 °C 1011.7 in /  34256.2 hPa ENE 7.6 mph /  12.2 km/h 7.6 mph /  12.2 km/h 55 % 0.0 in /  0 mm
21:31 28.1 °F /  -2.2 °C 18.2 °F /  -7.7 °C 1011.7 in /  34256.2 hPa East 9.3 mph /  15 km/h 9.3 mph /  15 km/h 55 % 0.0 in /  0 mm
21:35 24.7 °F /  -4.1 °C 18.4 °F /  -7.6 °C 1013.8 in /  34327.3 hPa WSW 1.6 mph /  2.6 km/h 3.2 mph /  5.1 km/h 68 % 0.0 in /  0 mm
21:36 28.1 °F /  -2.2 °C 18.5 °F /  -7.5 °C 1011.7 in /  34256.2 hPa NE 7.4 mph /  11.9 km/h 7.4 mph /  11.9 km/h 56 % 0.0 in /  0 mm
21:41 28.0 °F /  -2.2 °C 18.4 °F /  -7.6 °C 1011.7 in /  34256.2 hPa East 9.3 mph /  15 km/h 9.3 mph /  15 km/h 56 % 0.0 in /  0 mm
21:45 24.5 °F /  -4.2 °C 18.2 °F /  -7.7 °C 1013.8 in /  34327.3 hPa Calm     68 % 0.0 in /  0 mm
21:46 27.9 °F /  -2.3 °C 18.6 °F /  -7.4 °C 1012.8 in /  34293.4 hPa ESE 9.3 mph /  15 km/h 9.3 mph /  15 km/h 57 % 0.0 in /  0 mm
21:51 27.8 °F /  -2.3 °C 18.5 °F /  -7.5 °C 1012.8 in /  34293.4 hPa ENE 7.4 mph /  11.9 km/h 7.4 mph /  11.9 km/h 57 % 0.0 in /  0 mm
21:55 24.5 °F /  -4.2 °C 18.2 °F /  -7.7 °C 1013.8 in /  34327.3 hPa Calm   1.6 mph /  2.6 km/h 68 % 0.0 in /  0 mm
21:56 27.7 °F /  -2.4 °C 18.7 °F /  -7.4 °C 1012.8 in /  34293.4 hPa East 9.3 mph /  15 km/h 9.3 mph /  15 km/h 58 % 0.0 in /  0 mm
22:01 27.7 °F /  -2.4 °C 18.7 °F /  -7.4 °C 1013.8 in /  34327.3 hPa ESE 9.0 mph /  14.5 km/h 9.0 mph /  14.5 km/h 58 % 0.0 in /  0 mm
22:05 24.4 °F /  -4.2 °C 18.3 °F /  -7.6 °C 1012.8 in /  34293.4 hPa Calm     69 % 0.0 in /  0 mm
22:06 27.6 °F /  -2.4 °C 18.9 °F /  -7.3 °C 1013.8 in /  34327.3 hPa East 7.4 mph /  11.9 km/h 7.4 mph /  11.9 km/h 59 % 0.0 in /  0 mm
22:11 27.5 °F /  -2.5 °C 18.5 °F /  -7.5 °C 1013.8 in /  34327.3 hPa East 5.6 mph /  9 km/h 5.6 mph /  9 km/h 58 % 0.0 in /  0 mm
22:15 24.3 °F /  -4.3 °C 18.0 °F /  -7.8 °C 1012.8 in /  34293.4 hPa Calm   3.2 mph /  5.1 km/h 68 % 0.0 in /  0 mm
22:16 27.5 °F /  -2.5 °C 19.1 °F /  -7.2 °C 1013.8 in /  34327.3 hPa ESE 9.3 mph /  15 km/h 9.3 mph /  15 km/h 60 % 0.0 in /  0 mm
22:21 27.4 °F /  -2.6 °C 18.9 °F /  -7.3 °C 1013.8 in /  34327.3 hPa East 5.8 mph /  9.3 km/h 5.8 mph /  9.3 km/h 60 % 0.0 in /  0 mm
22:25 24.3 °F /  -4.3 °C 18.2 °F /  -7.7 °C 1013.8 in /  34327.3 hPa Calm   1.6 mph /  2.6 km/h 69 % 0.0 in /  0 mm
22:26 27.4 °F /  -2.6 °C 18.9 °F /  -7.3 °C 1013.8 in /  34327.3 hPa ENE 6.4 mph /  10.3 km/h 6.4 mph /  10.3 km/h 60 % 0.0 in /  0 mm
22:31 27.3 °F /  -2.6 °C 18.8 °F /  -7.3 °C 1013.8 in /  34327.3 hPa ENE 6.1 mph /  9.8 km/h 6.1 mph /  9.8 km/h 60 % 0.0 in /  0 mm
22:35 24.3 °F /  -4.3 °C 18.2 °F /  -7.7 °C 1013.8 in /  34327.3 hPa Calm     69 % 0.0 in /  0 mm
22:36 27.3 °F /  -2.6 °C 18.8 °F /  -7.3 °C 1013.8 in /  34327.3 hPa East 5.8 mph /  9.3 km/h 5.8 mph /  9.3 km/h 60 % 0.0 in /  0 mm
22:41 27.2 °F /  -2.7 °C 18.8 °F /  -7.3 °C 1013.8 in /  34327.3 hPa ENE 5.6 mph /  9 km/h 5.6 mph /  9 km/h 60 % 0.0 in /  0 mm
22:45 24.2 °F /  -4.3 °C 18.2 °F /  -7.7 °C 1013.8 in /  34327.3 hPa Calm     69 % 0.0 in /  0 mm
22:46 27.2 °F /  -2.7 °C 19.0 °F /  -7.2 °C 1013.8 in /  34327.3 hPa ESE 3.7 mph /  6 km/h 3.7 mph /  6 km/h 61 % 0.0 in /  0 mm
22:50 24.3 °F /  -4.3 °C 18.5 °F /  -7.5 °C 1013.8 in /  34327.3 hPa Calm     70 % 0.0 in /  0 mm
22:51 27.1 °F /  -2.7 °C 18.9 °F /  -7.3 °C 1013.8 in /  34327.3 hPa East 3.9 mph /  6.3 km/h 3.9 mph /  6.3 km/h 61 % 0.0 in /  0 mm
22:56 27.1 °F /  -2.7 °C 18.9 °F /  -7.3 °C 1013.8 in /  34327.3 hPa East 5.6 mph /  9 km/h 5.6 mph /  9 km/h 61 % 0.0 in /  0 mm
23:00 24.4 °F /  -4.2 °C 18.6 °F /  -7.4 °C 1013.8 in /  34327.3 hPa Calm     70 % 0.0 in /  0 mm
23:01 27.1 °F /  -2.7 °C 18.9 °F /  -7.3 °C 1013.8 in /  34327.3 hPa East 3.7 mph /  6 km/h 3.7 mph /  6 km/h 61 % 0.0 in /  0 mm
23:06 27.0 °F /  -2.8 °C 18.8 °F /  -7.3 °C 1013.8 in /  34327.3 hPa ESE 1.9 mph /  3.1 km/h   61 % 0.0 in /  0 mm
23:10 24.1 °F /  -4.4 °C 18.1 °F /  -7.7 °C 1013.8 in /  34327.3 hPa Calm   1.6 mph /  2.6 km/h 69 % 0.0 in /  0 mm
23:11 27.0 °F /  -2.8 °C 18.6 °F /  -7.4 °C 1013.8 in /  34327.3 hPa WSW 5.3 mph /  8.5 km/h 5.3 mph /  8.5 km/h 60 % 0.0 in /  0 mm
23:16 26.9 °F /  -2.8 °C 18.7 °F /  -7.4 °C 1013.8 in /  34327.3 hPa WSW 3.7 mph /  6 km/h 3.7 mph /  6 km/h 61 % 0.0 in /  0 mm
23:20 23.7 °F /  -4.6 °C 18.1 °F /  -7.7 °C 1013.8 in /  34327.3 hPa SW 1.6 mph /  2.6 km/h 3.2 mph /  5.1 km/h 71 % 0.0 in /  0 mm
23:21 26.8 °F /  -2.9 °C 18.9 °F /  -7.3 °C 1013.8 in /  34327.3 hPa SW 1.9 mph /  3.1 km/h   62 % 0.0 in /  0 mm
23:22 26.8 °F /  -2.9 °C 18.9 °F /  -7.3 °C 1013.8 in /  34327.3 hPa SW 2.3 mph /  3.7 km/h 2.3 mph /  3.7 km/h 62 % 0.0 in /  0 mm
23:27 26.7 °F /  -2.9 °C 18.8 °F /  -7.3 °C 1013.8 in /  34327.3 hPa WSW 1.9 mph /  3.1 km/h 1.9 mph /  3.1 km/h 62 % 0.0 in /  0 mm
23:30 23.7 °F /  -4.6 °C 18.1 °F /  -7.7 °C 1013.8 in /  34327.3 hPa Calm   1.6 mph /  2.6 km/h 71 % 0.0 in /  0 mm
23:32 26.7 °F /  -2.9 °C 18.8 °F /  -7.3 °C 1013.8 in /  34327.3 hPa SW 1.9 mph /  3.1 km/h 1.9 mph /  3.1 km/h 62 % 0.0 in /  0 mm
23:37 26.6 °F /  -3 °C 18.7 °F /  -7.4 °C 1013.8 in /  34327.3 hPa SW 1.9 mph /  3.1 km/h 2.6 mph /  4.2 km/h 62 % 0.0 in /  0 mm
23:40 23.8 °F /  -4.6 °C 18.2 °F /  -7.7 °C 1013.8 in /  34327.3 hPa WSW 1.6 mph /  2.6 km/h 3.2 mph /  5.1 km/h 71 % 0.0 in /  0 mm
23:42 26.5 °F /  -3.1 °C 18.6 °F /  -7.4 °C 1013.8 in /  34327.3 hPa WSW 1.9 mph /  3.1 km/h   62 % 0.0 in /  0 mm
23:47 26.5 °F /  -3.1 °C 18.9 °F /  -7.3 °C 1013.8 in /  34327.3 hPa SW 3.5 mph /  5.6 km/h 3.5 mph /  5.6 km/h 63 % 0.0 in /  0 mm
23:50 23.8 °F /  -4.6 °C 18.2 °F /  -7.7 °C 1013.8 in /  34327.3 hPa Calm   3.2 mph /  5.1 km/h 71 % 0.0 in /  0 mm
23:52 26.4 °F /  -3.1 °C 18.8 °F /  -7.3 °C 1013.8 in /  34327.3 hPa Calm     63 % 0.0 in /  0 mm
23:57 26.4 °F /  -3.1 °C 18.8 °F /  -7.3 °C 1013.8 in /  34327.3 hPa SW 3.7 mph /  6 km/h 3.7 mph /  6 km/h 63 % 0.0 in /  0 mm
Meteo Sesrovires
Elogis d' Weather Underground - 1.5 mb

Guio original per  Jim McMurry - jmcmurry@mwt.net Adaptat per a la plantilla per  Wim van der Kuil - Leuven-Template.eu

Trobareu la nostra informacio del temps tambe a:

Weather Underground

AWEKAS